createdAt,value
2022-11-20T00:02:15.938Z,47.15
2022-11-20T00:07:16.917Z,76.97
2022-11-20T00:12:18.043Z,112.80
2022-11-20T00:17:18.814Z,52.03
2022-11-20T00:22:19.744Z,41.35
2022-11-20T00:27:20.700Z,34.60
2022-11-20T00:32:21.627Z,39.17
2022-11-20T00:37:22.743Z,40.60
2022-11-20T00:42:23.757Z,40.45
2022-11-20T00:47:24.473Z,50.90
2022-11-20T00:52:25.682Z,76.68
2022-11-20T00:57:26.429Z,100.55
2022-11-20T01:02:27.213Z,67.68
2022-11-20T01:07:28.001Z,74.18
2022-11-20T01:12:28.786Z,104.57
2022-11-20T01:17:31.918Z,60.30
2022-11-20T01:27:33.624Z,43.22
2022-11-20T01:32:34.416Z,77.62
2022-11-20T01:37:35.289Z,37.67
2022-11-20T01:42:55.057Z,40.53
2022-11-20T01:47:55.874Z,34.58
2022-11-20T01:53:04.388Z,32.30
2022-11-20T01:58:06.105Z,28.10
2022-11-20T02:03:14.941Z,35.70
2022-11-20T02:08:15.843Z,35.83
2022-11-20T02:13:35.474Z,42.45
2022-11-20T02:18:37.281Z,35.58
2022-11-20T02:23:57.559Z,41.20
2022-11-20T02:29:00.751Z,41.13
2022-11-20T02:39:03.790Z,32.10
2022-11-20T02:44:05.911Z,36.90
2022-11-20T02:49:06.712Z,26.95
2022-11-20T02:54:07.582Z,32.30
2022-11-20T02:59:08.466Z,29.95
2022-11-20T03:04:09.414Z,26.90
2022-11-20T03:09:10.138Z,27.48
2022-11-20T03:14:10.968Z,23.67
2022-11-20T03:19:12.393Z,23.60
2022-11-20T03:24:13.668Z,23.17
2022-11-20T03:29:14.416Z,20.37
2022-11-20T03:34:15.147Z,17.48
2022-11-20T03:39:15.879Z,20.00
2022-11-20T03:44:16.842Z,22.37
2022-11-20T03:49:17.579Z,25.58
2022-11-20T03:54:18.412Z,29.00
2022-11-20T03:59:19.602Z,29.48
2022-11-20T04:04:20.736Z,35.90
2022-11-20T04:09:21.702Z,33.03
2022-11-20T04:14:22.731Z,33.88
2022-11-20T04:19:23.675Z,36.88
2022-11-20T04:24:24.896Z,38.55
2022-11-20T04:29:25.614Z,31.27
2022-11-20T04:34:26.428Z,33.13
2022-11-20T04:39:27.342Z,33.40
2022-11-20T04:44:28.213Z,93.22
2022-11-20T04:49:28.994Z,36.40
2022-11-20T04:54:30.003Z,27.58
2022-11-20T04:59:30.720Z,33.83
2022-11-20T05:04:31.819Z,35.33
2022-11-20T05:09:32.553Z,30.73
2022-11-20T05:14:33.313Z,34.20
2022-11-20T05:19:34.029Z,27.27
2022-11-20T05:24:35.061Z,25.65
2022-11-20T05:29:35.790Z,23.95
2022-11-20T05:34:36.590Z,30.48
2022-11-20T05:39:37.286Z,31.37
2022-11-20T05:44:38.532Z,31.35
2022-11-20T05:49:39.272Z,27.00
2022-11-20T05:54:40.144Z,27.10
2022-11-20T05:59:41.281Z,32.65
2022-11-20T06:04:42.156Z,30.60
2022-11-20T06:09:42.863Z,29.27
2022-11-20T06:14:43.691Z,27.15
2022-11-20T06:19:44.405Z,24.12
2022-11-20T06:24:45.338Z,25.12
2022-11-20T06:29:46.094Z,28.65
2022-11-20T06:34:46.922Z,27.30
2022-11-20T06:39:47.732Z,24.15
2022-11-20T06:44:48.824Z,25.30
2022-11-20T06:49:49.518Z,26.12
2022-11-20T06:54:50.473Z,24.70
2022-11-20T06:59:51.225Z,26.30
2022-11-20T07:04:52.328Z,24.35
2022-11-20T07:09:53.036Z,25.73
2022-11-20T07:14:53.792Z,28.00
2022-11-20T07:19:54.511Z,22.75
2022-11-20T07:24:55.519Z,25.83
2022-11-20T07:29:56.778Z,35.00
2022-11-20T07:34:57.636Z,29.65
2022-11-20T07:39:58.339Z,106.70
2022-11-20T07:44:59.469Z,98.47
2022-11-20T07:50:00.181Z,28.05
2022-11-20T07:55:01.375Z,38.58
2022-11-20T08:00:05.294Z,37.38
2022-11-20T08:05:13.073Z,21.92
2022-11-20T08:10:16.361Z,31.45
2022-11-20T08:20:17.914Z,39.22
2022-11-20T08:25:18.755Z,29.65
2022-11-20T08:30:19.508Z,27.42
2022-11-20T08:35:21.322Z,30.73
2022-11-20T08:40:22.092Z,31.48
2022-11-20T08:45:23.083Z,28.35
2022-11-20T08:50:23.797Z,42.85
2022-11-20T08:55:24.878Z,47.72
2022-11-20T09:00:26.381Z,41.88
2022-11-20T09:05:27.738Z,24.87
2022-11-20T09:10:28.662Z,29.95
2022-11-20T09:15:29.649Z,41.60
2022-11-20T09:20:30.864Z,26.50
2022-11-20T09:25:31.736Z,29.63
2022-11-20T09:30:32.473Z,34.20
2022-11-20T09:35:34.304Z,25.23
2022-11-20T09:40:36.134Z,21.40
2022-11-20T09:46:03.425Z,26.80
2022-11-20T09:53:57.426Z,22.23
2022-11-20T09:59:02.415Z,22.65
2022-11-20T10:04:20.857Z,31.12
2022-11-20T10:09:31.290Z,28.62
2022-11-20T10:16:23.145Z,32.42
2022-11-20T10:25:12.083Z,34.63
2022-11-20T10:30:16.111Z,25.95
2022-11-20T10:35:45.135Z,25.95
2022-11-20T10:40:51.422Z,26.08
2022-11-20T10:46:54.288Z,28.15
2022-11-20T10:52:09.217Z,31.23
2022-11-20T10:57:54.195Z,22.25
2022-11-20T11:02:56.670Z,20.55
2022-11-20T11:07:59.045Z,21.60
2022-11-20T11:12:59.861Z,19.37
2022-11-20T11:18:01.045Z,21.20
2022-11-20T11:23:02.092Z,21.67
2022-11-20T11:28:25.001Z,27.55
2022-11-20T11:33:28.793Z,23.75
2022-11-20T11:38:41.480Z,18.27
2022-11-20T11:44:14.150Z,17.92
2022-11-20T11:49:20.003Z,16.00
2022-11-20T11:54:26.049Z,17.08
2022-11-20T11:59:49.373Z,12.50
2022-11-20T12:09:57.895Z,17.50
2022-11-20T12:14:58.718Z,16.77
2022-11-20T12:19:59.779Z,9.88
2022-11-20T12:25:14.961Z,12.23
2022-11-20T12:30:17.703Z,12.30
2022-11-20T12:44:00.880Z,11.98
2022-11-20T12:49:38.495Z,9.20
2022-11-20T12:56:51.269Z,6.65
2022-11-20T13:02:05.638Z,9.45
2022-11-20T13:07:10.913Z,12.48
2022-11-20T13:12:25.632Z,9.02
2022-11-20T13:17:40.830Z,8.88
2022-11-20T13:22:57.559Z,9.35
2022-11-20T13:28:03.219Z,7.62
2022-11-20T13:33:21.186Z,10.07
2022-11-20T13:38:22.082Z,6.57
2022-11-20T13:43:44.846Z,6.70
2022-11-20T13:48:47.275Z,9.97
2022-11-20T13:54:07.906Z,6.17
2022-11-20T13:59:42.186Z,11.10
2022-11-20T14:04:46.992Z,6.57
2022-11-20T14:09:53.271Z,6.53
2022-11-20T14:14:54.866Z,7.22
2022-11-20T14:20:00.102Z,37.55
2022-11-20T14:25:31.202Z,12.57
2022-11-20T14:31:17.779Z,9.43
2022-11-20T14:36:21.702Z,12.82
2022-11-20T14:41:24.157Z,9.02
2022-11-20T14:46:26.139Z,9.77
2022-11-20T14:51:31.890Z,6.97
2022-11-20T14:56:32.626Z,8.52
2022-11-20T15:01:34.232Z,9.70
2022-11-20T15:06:35.568Z,6.30
2022-11-20T15:11:36.421Z,5.22
2022-11-20T15:16:37.192Z,4.25
2022-11-20T15:21:38.247Z,6.68
2022-11-20T15:26:40.328Z,10.25
2022-11-20T15:31:43.611Z,9.80
2022-11-20T15:41:45.509Z,8.18
2022-11-20T15:46:46.584Z,10.70
2022-11-20T15:51:50.106Z,9.13
2022-11-20T15:56:54.249Z,6.82
2022-11-20T16:01:58.581Z,7.20
2022-11-20T16:07:02.143Z,14.00
2022-11-20T16:12:07.193Z,8.88
2022-11-20T16:17:09.143Z,12.60
2022-11-20T16:22:12.185Z,8.90
2022-11-20T16:27:14.818Z,7.00
2022-11-20T16:32:24.030Z,10.52
2022-11-20T16:37:28.550Z,7.55
2022-11-20T16:42:37.326Z,11.30
2022-11-20T16:47:38.486Z,8.63
2022-11-20T16:52:42.018Z,8.45
2022-11-20T16:57:44.136Z,9.77
2022-11-20T17:02:46.562Z,10.40
2022-11-20T17:07:48.357Z,9.17
2022-11-20T17:12:50.830Z,7.80
2022-11-20T17:17:51.772Z,6.90
2022-11-20T17:22:53.773Z,6.90
2022-11-20T17:28:03.198Z,5.53
2022-11-20T17:33:11.164Z,10.63
2022-11-20T17:38:20.566Z,9.70
2022-11-20T17:43:35.509Z,8.35
2022-11-20T17:48:41.906Z,6.03
2022-11-20T17:54:08.971Z,6.62
2022-11-20T17:59:18.447Z,3.10
2022-11-20T18:04:27.631Z,2.75
2022-11-20T18:09:31.171Z,3.15
2022-11-20T18:14:37.881Z,2.12
2022-11-20T18:20:06.821Z,1.58
2022-11-20T18:25:33.487Z,4.72
2022-11-20T18:30:37.814Z,2.47
2022-11-20T18:35:46.290Z,3.83
2022-11-20T18:40:51.105Z,3.62
2022-11-20T18:46:02.575Z,4.25
2022-11-20T18:51:07.507Z,6.62
2022-11-20T18:56:09.573Z,3.55
2022-11-20T19:01:10.402Z,2.67
2022-11-20T19:06:15.884Z,3.72
2022-11-20T19:11:18.044Z,9.75
2022-11-20T19:16:21.765Z,7.45
2022-11-20T19:21:24.039Z,7.43
2022-11-20T19:26:25.173Z,8.70
2022-11-20T19:31:26.829Z,5.55
2022-11-20T19:36:30.858Z,2.92
2022-11-20T19:41:33.316Z,2.85
2022-11-20T19:46:35.964Z,10.45
2022-11-20T19:51:38.355Z,6.62
2022-11-20T19:56:39.241Z,4.70
2022-11-20T20:01:40.189Z,5.35
2022-11-20T20:06:41.213Z,4.03
2022-11-20T20:11:46.306Z,4.20
2022-11-20T20:16:47.330Z,7.32
2022-11-20T20:21:49.033Z,3.95
2022-11-20T20:26:52.364Z,4.07
2022-11-20T20:31:56.536Z,3.78
2022-11-20T20:36:57.248Z,5.90
2022-11-20T20:41:58.033Z,7.72
2022-11-20T20:46:58.951Z,5.95
2022-11-20T20:52:01.500Z,5.15
2022-11-20T20:57:02.362Z,6.47
2022-11-20T21:02:03.452Z,12.73
2022-11-20T21:07:04.848Z,11.05
2022-11-20T21:12:05.888Z,11.88
2022-11-20T21:17:10.770Z,18.87
2022-11-20T21:22:14.705Z,9.90
2022-11-20T21:27:15.433Z,10.05
2022-11-20T21:32:16.283Z,16.10
2022-11-20T21:37:17.075Z,20.62
2022-11-20T21:42:17.979Z,17.23
2022-11-20T21:47:18.769Z,15.07
2022-11-20T21:52:19.557Z,10.60
2022-11-20T21:57:20.300Z,9.60
2022-11-20T22:02:21.243Z,7.60
2022-11-20T22:07:22.027Z,7.57
2022-11-20T22:12:22.875Z,5.15
2022-11-20T22:18:11.946Z,4.65
2022-11-20T22:23:12.754Z,7.05
2022-11-20T22:28:13.577Z,4.00
2022-11-20T22:33:14.330Z,6.72
2022-11-20T22:38:15.095Z,4.47
2022-11-20T22:43:15.812Z,3.83
2022-11-20T22:48:17.066Z,3.50
2022-11-20T22:53:17.773Z,2.72
2022-11-20T22:58:18.537Z,1.92
2022-11-20T23:03:19.656Z,3.15
2022-11-20T23:08:20.583Z,3.45
2022-11-20T23:13:21.295Z,2.83
2022-11-20T23:18:22.194Z,4.90
2022-11-20T23:23:22.931Z,3.20
2022-11-20T23:28:23.705Z,3.42
2022-11-20T23:33:24.586Z,3.65
2022-11-20T23:38:25.409Z,3.58
2022-11-20T23:43:26.377Z,5.37
2022-11-20T23:48:36.118Z,5.90
2022-11-20T23:53:36.880Z,5.22
2022-11-20T23:58:38.008Z,11.75
